createdAt,value
2022-08-24T00:04:59.465Z,1.90
2022-08-24T00:10:01.677Z,2.00
2022-08-24T00:15:05.921Z,2.30
2022-08-24T00:20:09.876Z,1.80
2022-08-24T00:25:12.537Z,2.00
2022-08-24T00:30:16.929Z,2.07
2022-08-24T00:35:19.819Z,1.80
2022-08-24T00:40:31.303Z,2.00
2022-08-24T00:45:36.214Z,2.43
2022-08-24T00:50:40.842Z,2.30
2022-08-24T00:55:46.590Z,2.43
2022-08-24T01:00:53.173Z,2.10
2022-08-24T01:05:56.535Z,1.90
2022-08-24T01:11:04.414Z,2.13
2022-08-24T01:16:07.807Z,2.13
2022-08-24T01:21:24.532Z,2.20
2022-08-24T01:26:35.662Z,2.30
2022-08-24T01:31:39.741Z,2.30
2022-08-24T01:36:48.231Z,2.10
2022-08-24T01:41:51.477Z,2.20
2022-08-24T01:46:54.561Z,2.27
2022-08-24T01:51:56.822Z,2.23
2022-08-24T01:56:59.532Z,2.27
2022-08-24T02:02:09.997Z,2.50
2022-08-24T02:07:13.449Z,2.20
2022-08-24T02:12:15.207Z,2.70
2022-08-24T02:17:18.019Z,2.13
2022-08-24T02:22:21.079Z,2.27
2022-08-24T02:27:23.605Z,2.63
2022-08-24T02:32:25.275Z,1.90
2022-08-24T02:37:26.948Z,2.40
2022-08-24T02:42:29.481Z,2.33
2022-08-24T02:47:38.321Z,2.30
2022-08-24T02:52:42.539Z,2.30
2022-08-24T02:57:44.499Z,2.70
2022-08-24T03:02:46.758Z,2.40
2022-08-24T03:07:49.955Z,2.60
2022-08-24T03:12:54.447Z,2.43
2022-08-24T03:18:00.754Z,2.67
2022-08-24T03:23:03.366Z,2.30
2022-08-24T03:28:08.585Z,2.33
2022-08-24T03:33:12.689Z,2.30
2022-08-24T03:38:14.465Z,2.20
2022-08-24T03:43:35.004Z,2.90
2022-08-24T03:48:36.637Z,2.63
2022-08-24T03:53:39.058Z,2.23
2022-08-24T03:58:45.078Z,2.20
2022-08-24T04:03:48.083Z,2.40
2022-08-24T04:08:52.244Z,2.90
2022-08-24T04:13:57.045Z,2.40
2022-08-24T04:18:59.343Z,2.53
2022-08-24T04:24:01.831Z,2.60
2022-08-24T04:29:04.197Z,2.57
2022-08-24T04:34:11.851Z,2.50
2022-08-24T04:39:14.117Z,2.27
2022-08-24T04:44:41.393Z,2.30
2022-08-24T04:49:43.596Z,2.57
2022-08-24T04:54:46.600Z,2.60
2022-08-24T04:59:57.469Z,2.60
2022-08-24T05:04:59.192Z,2.80
2022-08-24T05:10:00.843Z,2.47
2022-08-24T05:15:02.413Z,2.77
2022-08-24T05:20:12.633Z,2.67
2022-08-24T05:25:15.009Z,2.37
2022-08-24T05:30:16.562Z,2.63
2022-08-24T05:35:18.512Z,3.10
2022-08-24T05:40:20.712Z,2.47
2022-08-24T05:45:25.204Z,2.70
2022-08-24T05:50:26.975Z,2.80
2022-08-24T05:55:30.527Z,2.47
2022-08-24T06:00:33.446Z,2.83
2022-08-24T06:05:39.418Z,2.20
2022-08-24T06:10:48.266Z,2.25
2022-08-24T06:16:11.026Z,2.72
2022-08-24T06:21:15.322Z,2.42
2022-08-24T06:26:38.705Z,2.40
2022-08-24T06:31:42.669Z,2.40
2022-08-24T06:36:46.212Z,2.42
2022-08-24T06:41:48.068Z,2.28
2022-08-24T06:47:03.026Z,2.42
2022-08-24T06:52:06.026Z,2.35
2022-08-24T06:57:07.563Z,2.00
2022-08-24T07:02:09.306Z,2.35
2022-08-24T07:07:12.921Z,2.30
2022-08-24T07:12:17.044Z,2.20
2022-08-24T07:17:19.075Z,2.30
2022-08-24T07:22:22.351Z,2.05
2022-08-24T07:27:24.314Z,2.20
2022-08-24T07:32:25.979Z,2.13
2022-08-24T07:37:40.755Z,2.30
2022-08-24T07:42:47.792Z,2.13
2022-08-24T07:47:55.580Z,2.25
2022-08-24T07:53:14.903Z,2.30
2022-08-24T07:58:18.244Z,2.00
2022-08-24T08:03:21.437Z,1.70
2022-08-24T08:08:24.303Z,2.05
2022-08-24T08:13:26.027Z,1.88
2022-08-24T08:18:28.319Z,2.10
2022-08-24T08:23:50.677Z,2.15
2022-08-24T08:28:59.214Z,2.03
2022-08-24T08:34:01.626Z,1.95
2022-08-24T08:39:03.978Z,1.85
2022-08-24T08:44:19.823Z,1.80
2022-08-24T08:49:37.051Z,2.10
2022-08-24T08:54:59.000Z,2.20
2022-08-24T09:00:17.315Z,1.90
2022-08-24T09:05:32.080Z,2.20
2022-08-24T09:10:42.715Z,2.10
2022-08-24T09:15:59.044Z,1.95
2022-08-24T09:21:20.321Z,1.92
2022-08-24T09:26:27.287Z,2.00
2022-08-24T09:32:00.295Z,2.10
2022-08-24T09:37:30.193Z,1.90
2022-08-24T09:42:53.231Z,2.65
2022-08-24T09:48:32.433Z,2.13
2022-08-24T09:53:55.714Z,2.47
2022-08-24T09:59:15.855Z,2.15
2022-08-24T10:04:32.549Z,2.22
2022-08-24T10:10:01.600Z,2.03
2022-08-24T10:15:11.515Z,1.70
2022-08-24T10:20:23.705Z,2.40
2022-08-24T10:25:36.249Z,2.10
2022-08-24T10:30:45.336Z,1.95
2022-08-24T10:36:05.607Z,2.15
2022-08-24T10:41:28.983Z,1.90
2022-08-24T10:46:58.420Z,2.28
2022-08-24T10:52:18.673Z,1.73
2022-08-24T10:57:26.287Z,2.20
2022-08-24T11:02:31.470Z,2.10
2022-08-24T11:07:33.348Z,2.00
2022-08-24T11:12:41.480Z,2.60
2022-08-24T11:17:53.666Z,1.85
2022-08-24T11:23:07.914Z,1.83
2022-08-24T11:28:20.346Z,2.13
2022-08-24T11:33:49.648Z,2.10
2022-08-24T11:39:23.953Z,1.80
2022-08-24T11:44:28.384Z,1.70
2022-08-24T11:49:44.235Z,1.77
2022-08-24T11:55:00.610Z,1.92
2022-08-24T12:00:20.506Z,1.90
2022-08-24T12:05:24.484Z,1.80
2022-08-24T12:10:37.939Z,1.77
2022-08-24T12:15:52.277Z,2.00
2022-08-24T12:20:54.414Z,1.80
2022-08-24T12:26:06.936Z,1.98
2022-08-24T12:31:32.847Z,2.00
2022-08-24T12:36:47.324Z,2.20
2022-08-24T12:42:05.716Z,1.80
2022-08-24T12:47:07.362Z,1.80
2022-08-24T12:52:54.330Z,1.90
2022-08-24T12:57:58.471Z,2.00
2022-08-24T13:03:08.315Z,1.85
2022-08-24T13:08:23.322Z,1.90
2022-08-24T13:14:04.634Z,1.80
2022-08-24T13:19:40.550Z,1.90
2022-08-24T13:24:44.437Z,1.75
2022-08-24T13:29:52.552Z,1.90
2022-08-24T13:34:56.777Z,1.80
2022-08-24T13:40:18.935Z,1.77
2022-08-24T13:45:32.622Z,1.85
2022-08-24T13:50:59.643Z,1.80
2022-08-24T13:56:32.716Z,1.80
2022-08-24T14:01:35.067Z,1.95
2022-08-24T14:06:51.737Z,1.90
2022-08-24T14:12:00.120Z,1.88
2022-08-24T14:17:23.312Z,2.00
2022-08-24T14:23:09.569Z,1.95
2022-08-24T14:28:43.378Z,1.70
2022-08-24T14:33:57.392Z,1.83
2022-08-24T14:39:06.054Z,1.63
2022-08-24T14:44:40.245Z,2.00
2022-08-24T14:50:04.060Z,1.50
2022-08-24T14:55:23.555Z,2.30
2022-08-24T15:00:50.760Z,2.30
2022-08-24T15:06:27.970Z,1.85
2022-08-24T15:11:30.081Z,2.10
2022-08-24T15:16:34.666Z,1.90
2022-08-24T15:21:48.352Z,1.88
2022-08-24T15:27:14.605Z,1.60
2022-08-24T15:32:16.934Z,1.90
2022-08-24T15:37:44.956Z,1.60
2022-08-24T15:42:47.214Z,1.65
2022-08-24T15:47:51.837Z,1.67
2022-08-24T15:53:04.823Z,1.73
2022-08-24T15:58:12.736Z,1.45
2022-08-24T16:03:23.111Z,1.77
2022-08-24T16:08:24.707Z,1.63
2022-08-24T16:13:29.401Z,1.70
2022-08-24T16:18:50.259Z,2.00
2022-08-24T16:24:01.278Z,1.60
2022-08-24T16:29:03.441Z,1.50
2022-08-24T16:34:30.726Z,1.90
2022-08-24T16:39:32.749Z,1.98
2022-08-24T16:44:41.780Z,2.10
2022-08-24T16:49:44.644Z,1.73
2022-08-24T16:54:46.870Z,2.08
2022-08-24T16:59:49.799Z,2.20
2022-08-24T17:04:51.891Z,2.00
2022-08-24T17:09:54.784Z,1.50
2022-08-24T17:14:56.318Z,1.85
2022-08-24T17:20:00.004Z,2.15
2022-08-24T17:25:01.587Z,1.80
2022-08-24T17:30:05.274Z,1.67
2022-08-24T17:35:07.005Z,1.90
2022-08-24T17:40:12.564Z,1.90
2022-08-24T17:45:14.142Z,1.80
2022-08-24T17:50:15.991Z,1.95
2022-08-24T17:55:17.783Z,1.70
2022-08-24T18:00:26.758Z,1.60
2022-08-24T18:05:30.441Z,1.90
2022-08-24T18:10:32.502Z,1.88
2022-08-24T18:15:36.292Z,2.00
2022-08-24T18:20:40.697Z,1.80
2022-08-24T18:25:47.051Z,1.90
2022-08-24T18:30:48.659Z,1.70
2022-08-24T18:35:50.351Z,1.73
2022-08-24T18:40:52.631Z,1.80
2022-08-24T18:45:54.815Z,1.70
2022-08-24T18:50:57.433Z,2.10
2022-08-24T18:56:08.096Z,2.03
2022-08-24T19:01:13.641Z,1.80
2022-08-24T19:06:15.383Z,1.95
2022-08-24T19:11:21.215Z,1.83
2022-08-24T19:16:22.807Z,1.67
2022-08-24T19:21:25.833Z,2.03
2022-08-24T19:26:27.619Z,2.10
2022-08-24T19:31:29.498Z,2.08
2022-08-24T19:36:32.358Z,1.65
2022-08-24T19:41:36.697Z,2.13
2022-08-24T19:46:38.879Z,2.00
2022-08-24T19:51:40.653Z,1.90
2022-08-24T19:56:42.293Z,1.88
2022-08-24T20:01:43.942Z,2.00
2022-08-24T20:06:45.853Z,1.98
2022-08-24T20:11:47.483Z,1.90
2022-08-24T20:16:49.246Z,2.05
2022-08-24T20:21:50.903Z,1.73
2022-08-24T20:26:52.559Z,1.90
2022-08-24T20:31:57.170Z,2.00
2022-08-24T20:37:00.196Z,1.90
2022-08-24T20:42:02.134Z,2.00
2022-08-24T20:47:04.365Z,1.90
2022-08-24T20:52:08.096Z,1.92
2022-08-24T20:57:12.549Z,1.83
2022-08-24T21:02:14.206Z,1.80
2022-08-24T21:07:17.047Z,1.90
2022-08-24T21:12:18.569Z,2.00
2022-08-24T21:17:20.287Z,2.00
2022-08-24T21:22:21.931Z,2.15
2022-08-24T21:27:24.350Z,1.60
2022-08-24T21:32:44.753Z,1.85
2022-08-24T21:37:46.495Z,1.80
2022-08-24T21:42:48.165Z,1.90
2022-08-24T21:47:49.851Z,2.15
2022-08-24T21:52:53.608Z,1.70
2022-08-24T21:57:55.431Z,1.85
2022-08-24T22:02:57.078Z,1.67
2022-08-24T22:07:58.885Z,1.80
2022-08-24T22:13:04.027Z,1.77
2022-08-24T22:18:06.099Z,1.80
2022-08-24T22:23:07.774Z,1.75
2022-08-24T22:28:09.283Z,1.80
2022-08-24T22:33:10.775Z,2.08
2022-08-24T22:38:12.697Z,1.77
2022-08-24T22:43:14.318Z,1.98
2022-08-24T22:48:15.868Z,1.80
2022-08-24T22:53:17.354Z,1.80
2022-08-24T22:58:18.867Z,1.70
2022-08-24T23:03:20.345Z,2.40
2022-08-24T23:08:21.848Z,1.70
2022-08-24T23:13:26.867Z,2.03
2022-08-24T23:18:48.515Z,1.80
2022-08-24T23:23:50.522Z,1.65
2022-08-24T23:28:52.079Z,1.95
2022-08-24T23:33:54.093Z,1.90
2022-08-24T23:38:58.080Z,1.80
2022-08-24T23:44:01.377Z,2.13
2022-08-24T23:49:03.841Z,1.80
2022-08-24T23:54:06.732Z,1.80
2022-08-24T23:59:13.867Z,1.90
